createdAt,value
2023-01-19T00:02:13.066Z,39.30
2023-01-19T00:07:17.759Z,39.30
2023-01-19T00:12:20.906Z,39.50
2023-01-19T00:17:24.076Z,39.50
2023-01-19T00:22:28.604Z,39.30
2023-01-19T00:27:35.029Z,39.40
2023-01-19T00:32:38.341Z,39.30
2023-01-19T00:37:46.160Z,39.30
2023-01-19T00:42:49.299Z,39.20
2023-01-19T00:47:54.832Z,39.10
2023-01-19T00:53:01.457Z,39.30
2023-01-19T00:58:04.817Z,39.20
2023-01-19T01:03:08.224Z,39.10
2023-01-19T01:08:13.833Z,39.10
2023-01-19T01:13:20.592Z,39.00
2023-01-19T01:18:26.342Z,38.80
2023-01-19T01:23:31.081Z,38.80
2023-01-19T01:28:34.190Z,38.90
2023-01-19T01:33:39.842Z,38.90
2023-01-19T01:38:44.841Z,39.00
2023-01-19T01:43:50.318Z,39.00
2023-01-19T01:48:58.219Z,38.70
2023-01-19T01:54:16.340Z,38.90
2023-01-19T01:59:26.763Z,38.90
2023-01-19T02:04:31.698Z,38.70
2023-01-19T02:09:55.595Z,38.70
2023-01-19T02:14:58.709Z,38.80
2023-01-19T02:20:01.864Z,38.70
2023-01-19T02:25:08.622Z,38.70
2023-01-19T02:30:13.710Z,38.80
2023-01-19T02:35:17.157Z,38.70
2023-01-19T02:40:25.047Z,38.80
2023-01-19T02:45:28.801Z,38.90
2023-01-19T02:50:46.275Z,38.80
2023-01-19T02:55:58.325Z,38.80
2023-01-19T03:01:12.563Z,38.90
2023-01-19T03:06:25.793Z,39.00
2023-01-19T03:11:38.277Z,39.00
2023-01-19T03:16:44.383Z,38.90
2023-01-19T03:21:51.573Z,38.90
2023-01-19T03:27:00.863Z,38.80
2023-01-19T03:32:09.118Z,38.90
2023-01-19T03:37:14.731Z,38.90
2023-01-19T03:42:20.338Z,38.90
2023-01-19T03:47:24.826Z,38.90
2023-01-19T03:52:29.737Z,38.80
2023-01-19T03:57:34.366Z,38.80
2023-01-19T04:02:37.590Z,38.70
2023-01-19T04:07:40.688Z,38.60
2023-01-19T04:12:45.397Z,38.70
2023-01-19T04:17:48.468Z,38.70
2023-01-19T04:22:51.590Z,38.60
2023-01-19T04:27:58.020Z,38.50
2023-01-19T04:33:01.472Z,38.50
2023-01-19T04:38:04.760Z,38.40
2023-01-19T04:43:10.048Z,38.60
2023-01-19T04:48:13.412Z,38.70
2023-01-19T04:53:18.503Z,38.50
2023-01-19T04:58:23.162Z,38.20
2023-01-19T05:03:27.011Z,38.30
2023-01-19T05:08:30.855Z,38.40
2023-01-19T05:13:36.645Z,38.50
2023-01-19T05:18:39.727Z,38.40
2023-01-19T05:23:42.851Z,38.40
2023-01-19T05:28:47.387Z,38.40
2023-01-19T05:33:50.480Z,38.60
2023-01-19T05:38:53.565Z,38.50
2023-01-19T05:43:58.261Z,38.50
2023-01-19T05:49:04.144Z,38.60
2023-01-19T05:54:08.305Z,38.50
2023-01-19T05:59:13.066Z,38.60
2023-01-19T06:04:16.155Z,38.90
2023-01-19T06:09:19.283Z,38.60
2023-01-19T06:14:23.858Z,38.70
2023-01-19T06:19:27.167Z,38.60
2023-01-19T06:24:31.077Z,38.90
2023-01-19T06:29:35.966Z,40.10
2023-01-19T06:34:40.516Z,39.40
2023-01-19T06:39:45.415Z,39.50
2023-01-19T06:44:49.905Z,38.80
2023-01-19T06:49:54.112Z,38.70
2023-01-19T06:54:57.576Z,38.60
2023-01-19T07:00:05.372Z,38.70
2023-01-19T07:05:09.396Z,38.70
2023-01-19T07:10:15.691Z,38.70
2023-01-19T07:15:22.681Z,38.80
2023-01-19T07:20:25.833Z,38.80
2023-01-19T07:25:29.061Z,38.70
2023-01-19T07:30:33.596Z,38.50
2023-01-19T07:35:36.829Z,38.60
2023-01-19T07:40:39.934Z,38.60
2023-01-19T07:45:45.178Z,38.60
2023-01-19T07:50:48.445Z,38.70
2023-01-19T07:55:56.507Z,39.00
2023-01-19T08:01:01.139Z,39.10
2023-01-19T08:06:05.342Z,39.10
2023-01-19T08:11:08.521Z,38.90
2023-01-19T08:16:12.984Z,38.80
2023-01-19T08:21:16.548Z,38.90
2023-01-19T08:26:20.598Z,38.90
2023-01-19T08:31:26.290Z,38.90
2023-01-19T08:36:29.661Z,39.00
2023-01-19T08:41:32.863Z,38.90
2023-01-19T08:46:37.319Z,39.10
2023-01-19T08:51:40.462Z,39.10
2023-01-19T08:56:43.601Z,39.10
2023-01-19T09:01:48.261Z,39.60
2023-01-19T09:06:51.470Z,38.80
2023-01-19T09:11:55.638Z,38.80
2023-01-19T09:17:00.248Z,38.60
2023-01-19T09:22:03.324Z,38.40
2023-01-19T09:27:06.578Z,38.20
2023-01-19T09:32:11.439Z,38.20
2023-01-19T09:37:15.345Z,38.00
2023-01-19T09:42:25.503Z,38.10
2023-01-19T09:47:33.065Z,38.00
2023-01-19T09:52:40.776Z,38.00
2023-01-19T09:57:45.146Z,38.20
2023-01-19T10:02:53.172Z,38.00
2023-01-19T10:08:10.248Z,38.70
2023-01-19T10:13:26.847Z,37.90
2023-01-19T10:18:47.554Z,37.90
2023-01-19T10:23:54.682Z,37.80
2023-01-19T10:29:04.071Z,38.30
2023-01-19T10:34:10.949Z,37.70
2023-01-19T10:39:18.965Z,37.50
2023-01-19T10:44:28.106Z,37.20
2023-01-19T10:49:38.872Z,36.60
2023-01-19T10:54:44.627Z,36.60
2023-01-19T10:59:51.150Z,36.60
2023-01-19T11:04:57.839Z,36.90
2023-01-19T11:10:21.239Z,37.00
2023-01-19T11:15:29.913Z,37.00
2023-01-19T11:20:50.139Z,37.50
2023-01-19T11:25:56.768Z,36.80
2023-01-19T11:31:01.964Z,37.20
2023-01-19T11:36:17.029Z,37.00
2023-01-19T11:41:23.846Z,37.00
2023-01-19T11:46:33.963Z,37.00
2023-01-19T11:51:53.291Z,37.10
2023-01-19T11:56:59.781Z,37.10
2023-01-19T12:02:14.786Z,37.20
2023-01-19T12:07:24.941Z,37.20
2023-01-19T12:12:31.968Z,37.30
2023-01-19T12:17:37.978Z,37.40
2023-01-19T12:22:53.566Z,37.40
2023-01-19T12:27:57.867Z,36.70
2023-01-19T12:33:22.244Z,37.20
2023-01-19T12:38:42.051Z,36.40
2023-01-19T12:43:45.265Z,36.10
2023-01-19T12:48:48.522Z,37.00
2023-01-19T12:53:56.418Z,36.90
2023-01-19T12:59:00.112Z,36.40
2023-01-19T13:04:06.735Z,36.50
2023-01-19T13:09:32.446Z,36.60
2023-01-19T13:14:38.311Z,35.60
2023-01-19T13:20:07.163Z,36.40
2023-01-19T13:25:13.990Z,35.50
2023-01-19T13:30:18.915Z,36.00
2023-01-19T13:35:23.682Z,35.80
2023-01-19T13:40:38.287Z,35.70
2023-01-19T13:45:41.838Z,35.00
2023-01-19T13:50:58.314Z,35.90
2023-01-19T13:56:11.026Z,35.10
2023-01-19T14:01:24.071Z,35.40
2023-01-19T14:06:38.730Z,35.10
2023-01-19T14:11:43.323Z,35.10
2023-01-19T14:16:46.440Z,35.40
2023-01-19T14:22:00.528Z,35.80
2023-01-19T14:27:22.743Z,35.30
2023-01-19T14:32:27.951Z,35.20
2023-01-19T14:37:32.698Z,35.80
2023-01-19T14:42:39.847Z,35.80
2023-01-19T14:47:45.797Z,35.80
2023-01-19T14:52:55.610Z,36.10
2023-01-19T14:58:02.340Z,36.00
2023-01-19T15:03:06.189Z,35.80
2023-01-19T15:08:12.697Z,36.20
2023-01-19T15:13:21.602Z,36.10
2023-01-19T15:18:27.732Z,35.80
2023-01-19T15:23:30.929Z,35.70
2023-01-19T15:28:35.601Z,35.90
2023-01-19T15:33:38.798Z,35.60
2023-01-19T15:38:42.055Z,35.80
2023-01-19T15:43:48.052Z,36.00
2023-01-19T15:48:52.435Z,35.70
2023-01-19T15:53:56.617Z,35.90
2023-01-19T15:59:02.706Z,36.00
2023-01-19T16:04:09.490Z,35.90
2023-01-19T16:09:16.837Z,36.00
2023-01-19T16:14:21.544Z,36.10
2023-01-19T16:19:26.971Z,36.00
2023-01-19T16:24:30.706Z,35.90
2023-01-19T16:29:35.212Z,35.70
2023-01-19T16:34:38.286Z,35.30
2023-01-19T16:39:43.796Z,35.40
2023-01-19T16:44:48.789Z,35.60
2023-01-19T16:49:52.854Z,35.70
2023-01-19T16:54:56.170Z,35.80
2023-01-19T17:00:00.977Z,35.90
2023-01-19T17:05:04.480Z,35.60
2023-01-19T17:10:09.353Z,35.50
2023-01-19T17:15:14.519Z,35.30
2023-01-19T17:20:18.113Z,35.00
2023-01-19T17:25:21.216Z,35.10
2023-01-19T17:30:25.791Z,35.00
2023-01-19T17:35:29.051Z,35.10
2023-01-19T17:40:32.445Z,35.40
2023-01-19T17:45:38.260Z,35.50
2023-01-19T17:50:41.372Z,35.40
2023-01-19T17:55:44.559Z,35.60
2023-01-19T18:00:49.184Z,36.30
2023-01-19T18:05:55.596Z,35.50
2023-01-19T18:11:00.290Z,35.40
2023-01-19T18:16:11.690Z,35.70
2023-01-19T18:21:16.164Z,35.50
2023-01-19T18:26:22.041Z,35.90
2023-01-19T18:31:27.496Z,35.80
2023-01-19T18:36:32.694Z,35.60
2023-01-19T18:41:40.462Z,35.80
2023-01-19T18:46:44.962Z,35.90
2023-01-19T18:51:48.121Z,35.80
2023-01-19T18:56:51.687Z,35.90
2023-01-19T19:01:56.187Z,35.90
2023-01-19T19:06:59.421Z,35.60
2023-01-19T19:12:02.786Z,35.70
2023-01-19T19:17:07.421Z,35.70
2023-01-19T19:22:10.587Z,35.70
2023-01-19T19:27:14.426Z,35.80
2023-01-19T19:32:20.547Z,35.90
2023-01-19T19:37:23.898Z,35.90
2023-01-19T19:42:28.956Z,35.90
2023-01-19T19:47:33.944Z,36.00
2023-01-19T19:52:39.743Z,35.90
2023-01-19T19:57:42.939Z,35.80
2023-01-19T20:02:47.475Z,36.00
2023-01-19T20:07:50.971Z,36.00
2023-01-19T20:12:54.184Z,36.10
2023-01-19T20:17:58.799Z,35.90
2023-01-19T20:23:02.591Z,35.80
2023-01-19T20:28:06.153Z,36.00
2023-01-19T20:33:10.746Z,35.90
2023-01-19T20:38:13.931Z,35.80
2023-01-19T20:43:17.071Z,35.80
2023-01-19T20:48:21.564Z,35.70
2023-01-19T20:53:24.821Z,35.60
2023-01-19T20:58:27.951Z,35.80
2023-01-19T21:03:34.794Z,35.80
2023-01-19T21:08:38.733Z,35.40
2023-01-19T21:13:41.972Z,35.40
2023-01-19T21:18:46.438Z,35.40
2023-01-19T21:23:50.213Z,35.20
2023-01-19T21:28:53.498Z,35.50
2023-01-19T21:33:58.615Z,35.60
2023-01-19T21:39:01.765Z,35.60
2023-01-19T21:44:05.133Z,35.70
2023-01-19T21:49:14.409Z,35.80
2023-01-19T21:54:17.792Z,35.80
2023-01-19T21:59:21.005Z,35.90
2023-01-19T22:04:25.465Z,35.90
2023-01-19T22:09:28.748Z,35.90
2023-01-19T22:14:32.001Z,35.80
2023-01-19T22:19:36.534Z,35.80
2023-01-19T22:24:39.729Z,35.60
2023-01-19T22:29:42.888Z,35.60
2023-01-19T22:34:48.876Z,35.60
2023-01-19T22:39:51.991Z,35.60
2023-01-19T22:44:55.134Z,35.80
2023-01-19T22:49:59.687Z,35.90
2023-01-19T22:55:03.865Z,36.00
2023-01-19T23:00:09.125Z,35.80
2023-01-19T23:05:14.169Z,35.70
2023-01-19T23:10:18.126Z,35.70
2023-01-19T23:15:21.216Z,35.80
2023-01-19T23:20:25.827Z,35.60
2023-01-19T23:25:29.109Z,35.60
2023-01-19T23:30:32.215Z,35.90
2023-01-19T23:35:37.172Z,36.00
2023-01-19T23:40:40.250Z,35.80
2023-01-19T23:45:43.334Z,35.60
2023-01-19T23:50:47.883Z,35.60
2023-01-19T23:55:50.963Z,35.70
